createdAt,value
2023-01-08T00:02:44.080Z,2.90
2023-01-08T00:05:11.470Z,2.80
2023-01-08T00:10:06.733Z,2.90
2023-01-08T00:17:29.242Z,2.60
2023-01-08T00:27:19.119Z,2.60
2023-01-08T00:34:40.976Z,2.50
2023-01-08T00:46:57.619Z,2.50
2023-01-08T00:59:14.326Z,2.50
2023-01-08T01:01:41.445Z,2.60
2023-01-08T01:04:08.602Z,2.80
2023-01-08T01:06:35.585Z,2.80
2023-01-08T01:11:29.971Z,2.80
2023-01-08T01:16:25.638Z,2.90
2023-01-08T01:18:54.755Z,2.80
2023-01-08T01:21:29.617Z,2.90
2023-01-08T01:24:04.247Z,2.90
2023-01-08T01:26:33.420Z,2.90
2023-01-08T01:31:31.599Z,3.20
2023-01-08T01:36:27.094Z,3.30
2023-01-08T01:38:57.637Z,3.20
2023-01-08T01:41:39.382Z,3.10
2023-01-08T01:44:46.098Z,3.00
2023-01-08T01:47:36.841Z,2.90
2023-01-08T01:50:19.036Z,2.70
2023-01-08T01:53:01.940Z,2.60
2023-01-08T01:55:31.677Z,2.90
2023-01-08T01:58:08.954Z,3.10
2023-01-08T02:00:36.729Z,3.20
2023-01-08T02:05:55.419Z,3.10
2023-01-08T02:08:37.227Z,3.00
2023-01-08T02:12:19.034Z,3.10
2023-01-08T02:15:19.647Z,2.90
2023-01-08T02:18:09.972Z,3.10
2023-01-08T02:20:57.720Z,3.30
2023-01-08T02:23:39.850Z,3.20
2023-01-08T02:26:27.263Z,3.00
2023-01-08T02:29:10.608Z,2.80
2023-01-08T02:31:42.104Z,2.90
2023-01-08T02:34:11.023Z,2.90
2023-01-08T02:36:47.956Z,2.80
2023-01-08T02:39:45.485Z,2.70
2023-01-08T02:42:32.130Z,2.70
2023-01-08T02:45:30.436Z,2.60
2023-01-08T02:48:15.902Z,2.50
2023-01-08T02:53:32.672Z,2.50
2023-01-08T02:56:07.355Z,2.60
2023-01-08T02:58:37.312Z,2.60
2023-01-08T03:01:10.009Z,2.50
2023-01-08T03:03:43.400Z,2.40
2023-01-08T03:06:16.824Z,2.60
2023-01-08T03:08:50.660Z,2.60
2023-01-08T03:11:24.891Z,2.60
2023-01-08T03:14:11.150Z,2.70
2023-01-08T03:16:49.524Z,2.60
2023-01-08T03:19:25.703Z,2.60
2023-01-08T03:21:53.836Z,2.60
2023-01-08T03:24:34.355Z,2.60
2023-01-08T03:27:07.087Z,2.60
2023-01-08T03:29:37.764Z,2.60
2023-01-08T03:32:12.582Z,2.60
2023-01-08T03:34:44.007Z,2.60
2023-01-08T03:37:13.984Z,2.50
2023-01-08T03:40:03.218Z,2.40
2023-01-08T03:42:32.550Z,2.40
2023-01-08T03:45:01.090Z,2.80
2023-01-08T03:47:31.677Z,3.00
2023-01-08T03:50:07.351Z,4.90
2023-01-08T03:55:01.983Z,2.60
2023-01-08T03:57:28.990Z,2.80
2023-01-08T03:59:55.978Z,3.30
2023-01-08T04:04:53.636Z,3.40
2023-01-08T04:12:15.686Z,3.70
2023-01-08T04:14:42.631Z,3.70
2023-01-08T04:17:13.111Z,3.60
2023-01-08T04:19:40.287Z,3.60
2023-01-08T04:32:00.721Z,3.70
2023-01-08T04:34:27.762Z,3.60
2023-01-08T04:36:54.816Z,3.70
2023-01-08T04:44:16.775Z,3.50
2023-01-08T04:49:12.624Z,3.40
2023-01-08T04:54:07.215Z,3.40
2023-01-08T04:59:01.852Z,3.40
2023-01-08T05:01:29.706Z,3.30
2023-01-08T05:04:01.467Z,3.30
2023-01-08T05:06:31.208Z,3.10
2023-01-08T05:11:26.214Z,2.80
2023-01-08T05:13:54.172Z,2.70
2023-01-08T05:16:21.540Z,2.70
2023-01-08T05:18:48.835Z,2.70
2023-01-08T05:21:16.833Z,2.70
2023-01-08T05:23:48.211Z,2.80
2023-01-08T05:26:17.060Z,2.90
2023-01-08T05:28:44.179Z,2.90
2023-01-08T05:31:12.075Z,2.90
2023-01-08T05:36:11.149Z,2.90
2023-01-08T05:38:39.336Z,3.10
2023-01-08T05:41:07.569Z,3.20
2023-01-08T05:43:35.874Z,3.30
2023-01-08T05:46:04.854Z,3.30
2023-01-08T05:48:34.920Z,3.30
2023-01-08T05:56:11.903Z,3.40
2023-01-08T05:58:39.389Z,3.40
2023-01-08T06:01:16.226Z,3.30
2023-01-08T06:03:43.422Z,3.30
2023-01-08T06:06:11.619Z,3.30
2023-01-08T06:08:39.290Z,3.10
2023-01-08T06:11:09.007Z,3.00
2023-01-08T06:13:37.831Z,3.00
2023-01-08T06:16:05.530Z,3.00
2023-01-08T06:18:32.900Z,3.10
2023-01-08T06:21:04.016Z,3.10
2023-01-08T06:23:32.388Z,3.00
2023-01-08T06:26:01.963Z,2.90
2023-01-08T06:31:01.357Z,3.20
2023-01-08T06:33:29.279Z,3.40
2023-01-08T06:36:02.264Z,3.60
2023-01-08T06:38:38.062Z,3.70
2023-01-08T06:41:08.756Z,3.80
2023-01-08T06:43:38.021Z,3.80
2023-01-08T06:46:10.032Z,3.70
2023-01-08T06:48:38.104Z,3.60
2023-01-08T06:51:06.675Z,3.40
2023-01-08T06:53:34.272Z,3.30
2023-01-08T06:56:04.437Z,3.40
2023-01-08T07:03:28.090Z,3.60
2023-01-08T07:05:56.563Z,3.70
2023-01-08T07:08:24.043Z,3.80
2023-01-08T07:13:18.427Z,3.80
2023-01-08T07:20:40.867Z,4.00
2023-01-08T07:23:11.826Z,4.00
2023-01-08T07:28:12.873Z,3.80
2023-01-08T07:35:35.504Z,3.90
2023-01-08T07:38:02.449Z,3.90
2023-01-08T07:43:04.766Z,3.70
2023-01-08T07:45:31.808Z,3.60
2023-01-08T07:47:59.716Z,3.50
2023-01-08T07:50:27.758Z,3.60
2023-01-08T07:53:01.810Z,3.50
2023-01-08T07:55:31.635Z,3.60
2023-01-08T07:57:59.194Z,3.60
2023-01-08T08:00:27.051Z,3.70
2023-01-08T08:05:21.698Z,3.50
2023-01-08T08:10:16.438Z,3.60
2023-01-08T08:12:45.690Z,3.60
2023-01-08T08:17:40.222Z,3.60
2023-01-08T08:20:08.171Z,3.60
2023-01-08T08:25:02.620Z,3.70
2023-01-08T08:27:29.621Z,3.70
2023-01-08T08:29:56.636Z,3.80
2023-01-08T08:39:48.155Z,4.00
2023-01-08T08:44:43.270Z,4.10
2023-01-08T08:47:11.106Z,4.10
2023-01-08T08:52:05.989Z,4.10
2023-01-08T08:57:00.430Z,4.20
2023-01-08T09:06:15.134Z,4.50
2023-01-08T09:08:42.185Z,4.60
2023-01-08T09:13:38.017Z,4.80
2023-01-08T09:18:33.010Z,5.00
2023-01-08T09:21:06.795Z,5.10
2023-01-08T09:23:38.683Z,5.20
2023-01-08T09:26:06.466Z,5.30
2023-01-08T09:28:33.625Z,5.30
2023-01-08T09:31:04.332Z,5.30
2023-01-08T09:33:32.308Z,5.30
2023-01-08T09:38:29.546Z,5.50
2023-01-08T09:41:15.635Z,5.50
2023-01-08T09:43:47.203Z,5.80
2023-01-08T09:46:16.994Z,6.00
2023-01-08T09:48:45.142Z,6.10
2023-01-08T09:51:19.423Z,6.20
2023-01-08T09:53:55.882Z,6.10
2023-01-08T09:56:22.883Z,6.00
2023-01-08T09:59:00.183Z,5.90
2023-01-08T10:01:35.475Z,5.70
2023-01-08T10:04:21.319Z,5.50
2023-01-08T10:07:21.274Z,5.50
2023-01-08T10:09:50.130Z,5.40
2023-01-08T10:12:33.532Z,5.40
2023-01-08T10:15:10.898Z,5.40
2023-01-08T10:17:46.516Z,5.50
2023-01-08T10:20:24.116Z,5.50
2023-01-08T10:22:54.198Z,5.60
2023-01-08T10:25:28.213Z,5.60
2023-01-08T10:28:01.368Z,5.60
2023-01-08T10:30:31.228Z,5.50
2023-01-08T10:33:06.431Z,5.50
2023-01-08T10:35:41.599Z,5.70
2023-01-08T10:38:34.150Z,5.50
2023-01-08T10:41:09.818Z,5.60
2023-01-08T10:43:58.950Z,5.60
2023-01-08T10:46:43.747Z,5.70
2023-01-08T10:49:41.647Z,5.70
2023-01-08T10:52:52.759Z,5.70
2023-01-08T10:55:37.288Z,5.70
2023-01-08T10:58:08.583Z,5.60
2023-01-08T11:00:39.313Z,5.50
2023-01-08T11:03:20.532Z,5.50
2023-01-08T11:05:47.764Z,5.50
2023-01-08T11:08:23.063Z,5.50
2023-01-08T11:11:01.144Z,5.50
2023-01-08T11:13:29.829Z,5.40
2023-01-08T11:16:07.994Z,5.40
2023-01-08T11:18:51.745Z,5.40
2023-01-08T11:21:28.027Z,5.40
2023-01-08T11:24:25.792Z,5.30
2023-01-08T11:27:06.253Z,5.30
2023-01-08T11:30:07.500Z,5.40
2023-01-08T11:33:02.246Z,5.40
2023-01-08T11:36:00.862Z,5.50
2023-01-08T11:41:18.434Z,5.60
2023-01-08T11:44:39.492Z,5.60
2023-01-08T11:47:38.677Z,5.50
2023-01-08T11:50:20.463Z,5.50
2023-01-08T11:53:34.879Z,5.50
2023-01-08T11:56:47.181Z,5.60
2023-01-08T12:02:41.673Z,5.70
2023-01-08T12:05:32.007Z,5.70
2023-01-08T12:08:35.660Z,5.80
2023-01-08T12:11:16.494Z,5.90
2023-01-08T12:14:20.978Z,5.90
2023-01-08T12:17:36.532Z,5.90
2023-01-08T12:20:40.175Z,6.00
2023-01-08T12:24:13.353Z,6.00
2023-01-08T12:27:05.716Z,6.00
2023-01-08T12:30:06.997Z,6.20
2023-01-08T12:32:47.851Z,6.30
2023-01-08T12:35:32.416Z,6.30
2023-01-08T12:38:14.700Z,6.40
2023-01-08T12:40:51.721Z,6.40
2023-01-08T12:43:32.015Z,6.40
2023-01-08T12:46:02.695Z,6.40
2023-01-08T12:48:37.788Z,6.40
2023-01-08T12:51:36.479Z,6.50
2023-01-08T12:54:51.504Z,6.50
2023-01-08T12:57:34.965Z,6.50
2023-01-08T13:00:33.374Z,6.50
2023-01-08T13:03:05.230Z,6.50
2023-01-08T13:05:37.036Z,6.50
2023-01-08T13:08:24.420Z,6.50
2023-01-08T13:10:55.046Z,6.60
2023-01-08T13:13:39.619Z,6.60
2023-01-08T13:16:14.184Z,6.60
2023-01-08T13:18:51.137Z,6.70
2023-01-08T13:21:18.626Z,6.70
2023-01-08T13:23:45.603Z,6.70
2023-01-08T13:29:44.398Z,6.70
2023-01-08T13:32:48.448Z,6.70
2023-01-08T13:38:05.996Z,6.80
2023-01-08T13:40:45.124Z,6.80
2023-01-08T13:43:22.453Z,6.80
2023-01-08T13:46:18.579Z,6.90
2023-01-08T13:49:08.406Z,6.90
2023-01-08T13:51:38.337Z,6.90
2023-01-08T13:54:17.559Z,6.90
2023-01-08T13:56:49.480Z,6.80
2023-01-08T13:59:57.466Z,6.90
2023-01-08T14:05:01.469Z,6.80
2023-01-08T14:07:28.605Z,6.80
2023-01-08T14:10:11.953Z,6.80
2023-01-08T14:12:40.437Z,6.80
2023-01-08T14:15:26.623Z,6.70
2023-01-08T14:17:56.188Z,6.70
2023-01-08T14:20:41.975Z,6.70
2023-01-08T14:23:36.178Z,6.60
2023-01-08T14:26:08.485Z,6.60
2023-01-08T14:28:35.582Z,6.60
2023-01-08T14:33:38.495Z,6.50
2023-01-08T14:36:08.622Z,6.40
2023-01-08T14:41:09.067Z,6.40
2023-01-08T14:43:44.419Z,6.40
2023-01-08T14:46:27.978Z,6.30
2023-01-08T14:48:57.027Z,6.20
2023-01-08T14:51:31.796Z,6.20
2023-01-08T14:54:06.648Z,6.10
2023-01-08T14:56:36.092Z,6.10
2023-01-08T14:59:12.096Z,6.10
2023-01-08T15:09:33.460Z,6.00
2023-01-08T15:12:07.130Z,6.00
2023-01-08T15:14:37.472Z,6.00
2023-01-08T15:17:21.662Z,5.90
2023-01-08T15:19:59.140Z,5.90
2023-01-08T15:22:32.833Z,5.90
2023-01-08T15:25:07.518Z,5.90
2023-01-08T15:27:37.201Z,5.90
2023-01-08T15:30:21.800Z,5.90
2023-01-08T15:35:19.304Z,5.70
2023-01-08T15:37:46.848Z,5.80
2023-01-08T15:43:00.251Z,5.80
2023-01-08T15:45:32.261Z,5.80
2023-01-08T15:50:28.537Z,5.80
2023-01-08T15:52:57.360Z,5.80
2023-01-08T15:55:25.571Z,5.80
2023-01-08T15:57:55.850Z,5.80
2023-01-08T16:02:53.582Z,5.80
2023-01-08T16:05:24.061Z,5.80
2023-01-08T16:10:19.579Z,5.80
2023-01-08T16:15:15.901Z,5.80
2023-01-08T16:20:13.415Z,5.80
2023-01-08T16:22:41.335Z,5.80
2023-01-08T16:25:09.841Z,5.90
2023-01-08T16:27:38.339Z,5.80
2023-01-08T16:30:08.899Z,5.80
2023-01-08T16:35:03.895Z,5.90
2023-01-08T16:39:58.716Z,5.80
2023-01-08T16:44:53.191Z,5.90
2023-01-08T16:49:50.274Z,5.80
2023-01-08T16:54:46.904Z,5.80
2023-01-08T16:57:14.544Z,5.80
2023-01-08T16:59:41.601Z,5.80
2023-01-08T17:02:10.629Z,5.80
2023-01-08T17:07:05.775Z,5.80
2023-01-08T17:09:32.870Z,5.80
2023-01-08T17:14:28.185Z,5.70
2023-01-08T17:16:55.227Z,5.70
2023-01-08T17:19:22.347Z,5.70
2023-01-08T17:21:52.402Z,5.70
2023-01-08T17:24:19.555Z,5.70
2023-01-08T17:26:46.580Z,5.60
2023-01-08T17:29:13.572Z,5.50
2023-01-08T17:31:40.708Z,5.50
2023-01-08T17:34:13.299Z,5.40
2023-01-08T17:36:40.896Z,5.40
2023-01-08T17:41:56.457Z,5.20
2023-01-08T17:46:53.245Z,5.10
2023-01-08T17:49:20.842Z,5.10
2023-01-08T17:51:47.921Z,5.10
2023-01-08T17:54:17.196Z,5.10
2023-01-08T17:56:44.826Z,5.10
2023-01-08T17:59:18.018Z,5.10
2023-01-08T18:01:46.142Z,5.10
2023-01-08T18:04:14.665Z,5.30
2023-01-08T18:06:43.367Z,5.30
2023-01-08T18:09:12.417Z,5.30
2023-01-08T18:11:41.719Z,5.40
2023-01-08T18:14:12.942Z,5.40
2023-01-08T18:21:40.318Z,5.20
2023-01-08T18:24:08.251Z,5.20
2023-01-08T18:26:35.398Z,5.10
2023-01-08T18:33:58.502Z,5.10
2023-01-08T18:36:26.046Z,5.00
2023-01-08T18:38:53.332Z,4.90
2023-01-08T18:41:47.318Z,4.90
2023-01-08T18:44:14.668Z,4.90
2023-01-08T18:49:09.714Z,4.90
2023-01-08T18:51:36.845Z,4.90
2023-01-08T18:54:04.559Z,4.90
2023-01-08T18:56:36.697Z,4.90
2023-01-08T18:59:06.536Z,4.90
2023-01-08T19:01:35.897Z,4.90
2023-01-08T19:04:04.010Z,4.80
2023-01-08T19:08:59.835Z,4.80
2023-01-08T19:11:27.356Z,4.80
2023-01-08T19:13:58.837Z,4.80
2023-01-08T19:16:26.650Z,4.80
2023-01-08T19:18:54.528Z,4.90
2023-01-08T19:23:49.765Z,4.90
2023-01-08T19:26:17.445Z,4.90
2023-01-08T19:28:45.076Z,5.00
2023-01-08T19:31:16.936Z,5.00
2023-01-08T19:33:46.192Z,4.90
2023-01-08T19:38:44.679Z,4.70
2023-01-08T19:41:31.930Z,4.60
2023-01-08T19:44:00.172Z,4.50
2023-01-08T19:46:28.526Z,4.40
2023-01-08T19:49:01.353Z,4.40
2023-01-08T19:51:32.007Z,4.30
2023-01-08T19:54:01.291Z,4.20
2023-01-08T19:58:58.357Z,4.30
2023-01-08T20:01:28.419Z,4.20
2023-01-08T20:03:57.097Z,4.10
2023-01-08T20:06:27.353Z,4.00
2023-01-08T20:08:59.558Z,4.00
2023-01-08T20:11:28.720Z,4.00
2023-01-08T20:14:00.740Z,4.00
2023-01-08T20:16:29.444Z,4.00
2023-01-08T20:18:59.160Z,4.10
2023-01-08T20:21:26.173Z,4.10
2023-01-08T20:24:06.720Z,4.10
2023-01-08T20:26:36.483Z,4.10
2023-01-08T20:34:05.553Z,4.30
2023-01-08T20:36:34.782Z,4.40
2023-01-08T20:39:11.079Z,4.60
2023-01-08T20:41:38.284Z,4.70
2023-01-08T20:44:09.317Z,4.70
2023-01-08T20:46:38.079Z,4.70
2023-01-08T20:49:13.610Z,4.70
2023-01-08T20:51:54.309Z,4.70
2023-01-08T20:54:24.971Z,4.70
2023-01-08T20:59:24.009Z,4.60
2023-01-08T21:01:51.454Z,4.60
2023-01-08T21:04:19.734Z,4.70
2023-01-08T21:06:46.802Z,4.70
2023-01-08T21:09:16.042Z,4.60
2023-01-08T21:11:43.213Z,4.60
2023-01-08T21:14:11.735Z,4.50
2023-01-08T21:16:40.411Z,4.50
2023-01-08T21:19:10.145Z,4.50
2023-01-08T21:21:40.157Z,4.50
2023-01-08T21:24:12.411Z,4.50
2023-01-08T21:26:39.921Z,4.50
2023-01-08T21:29:08.966Z,4.50
2023-01-08T21:31:37.955Z,4.50
2023-01-08T21:34:08.357Z,4.50
2023-01-08T21:39:03.739Z,4.50
2023-01-08T21:41:50.896Z,4.50
2023-01-08T21:44:44.540Z,4.40
2023-01-08T21:47:17.086Z,4.40
2023-01-08T21:49:45.673Z,4.50
2023-01-08T21:52:31.815Z,4.50
2023-01-08T21:54:58.870Z,4.50
2023-01-08T21:59:56.958Z,4.40
2023-01-08T22:02:24.917Z,4.40
2023-01-08T22:04:56.140Z,4.40
2023-01-08T22:07:25.092Z,4.30
2023-01-08T22:12:20.288Z,4.30
2023-01-08T22:22:11.178Z,4.20
2023-01-08T22:27:08.278Z,4.20
2023-01-08T22:29:37.385Z,4.10
2023-01-08T22:37:01.793Z,4.20
2023-01-08T22:41:56.502Z,4.20
2023-01-08T22:51:46.025Z,4.20
2023-01-08T22:54:14.502Z,4.20
2023-01-08T22:56:41.496Z,4.20
2023-01-08T22:59:08.548Z,4.20
2023-01-08T23:01:36.014Z,4.20
2023-01-08T23:04:03.900Z,4.20
2023-01-08T23:06:32.320Z,4.20
2023-01-08T23:11:28.153Z,4.30
2023-01-08T23:13:55.373Z,4.20
2023-01-08T23:16:25.914Z,4.30
2023-01-08T23:18:54.953Z,4.30
2023-01-08T23:21:25.927Z,4.30
2023-01-08T23:23:53.371Z,4.30
2023-01-08T23:26:29.418Z,4.30
2023-01-08T23:28:57.749Z,4.30
2023-01-08T23:31:29.087Z,4.30
2023-01-08T23:38:56.140Z,4.40
2023-01-08T23:41:33.676Z,4.40
2023-01-08T23:44:08.799Z,4.40
2023-01-08T23:49:06.963Z,4.40
2023-01-08T23:51:34.071Z,4.40
2023-01-08T23:56:28.672Z,4.40
2023-01-08T23:58:56.855Z,4.40
